Time,TemperatureF,DewpointF,PressureIn,WindDirection,WindDirectionDegrees,WindSpeedMPH,WindSpeedGustMPH,Humidity,HourlyPrecipIn,Conditions,Clouds,dailyrainin,SoftwareType,DateUTC
2013-02-16 00:15:00,31.5,27.5,29.91,West,269,0.0,0.0,85,0.00,,BKN200,0.00,VWS V14.01,2013-02-16 05:15:00,
2013-02-16 00:20:00,31.3,27.3,29.90,West,269,0.0,0.0,85,0.00,,BKN200,0.00,VWS V14.01,2013-02-16 05:20:00,
2013-02-16 00:25:00,30.9,26.9,29.90,West,269,0.0,0.0,85,0.00,,BKN200,0.00,VWS V14.01,2013-02-16 05:25:00,
2013-02-16 00:31:00,30.6,26.9,29.90,West,268,0.0,0.0,86,0.00,,BKN200,0.00,VWS V14.01,2013-02-16 05:31:00,
2013-02-16 00:36:00,30.3,26.6,29.91,West,269,0.0,0.0,86,0.00,,BKN200,0.00,VWS V14.01,2013-02-16 05:36:00,
2013-02-16 00:41:00,30.6,27.2,29.91,West,268,0.0,0.0,87,0.00,,BKN200,0.00,VWS V14.01,2013-02-16 05:41:00,
2013-02-16 00:46:00,30.7,27.3,29.91,West,269,0.0,0.0,87,0.00,,BKN200,0.00,VWS V14.01,2013-02-16 05:46:00,
2013-02-16 00:51:00,30.9,27.2,29.91,West,269,0.0,0.0,86,0.00,,BKN200,0.00,VWS V14.01,2013-02-16 05:51:00,
2013-02-16 00:56:00,31.0,27.3,29.91,West,269,0.0,0.0,86,0.00,,BKN200,0.00,VWS V14.01,2013-02-16 05:56:00,
2013-02-16 01:01:00,31.3,27.6,29.91,West,269,0.0,0.0,86,0.00,,BKN200,0.00,VWS V14.01,2013-02-16 06:01:00,
2013-02-16 01:06:00,31.5,27.8,29.91,West,269,0.0,0.0,86,0.00,,BKN200,0.00,VWS V14.01,2013-02-16 06:06:00,
2013-02-16 01:11:00,31.4,27.4,29.91,West,269,0.0,0.0,85,0.00,,BKN200,0.00,VWS V14.01,2013-02-16 06:11:00,
2013-02-16 01:16:00,31.5,27.8,29.92,West,269,0.0,0.0,86,0.00,,BKN200,0.00,VWS V14.01,2013-02-16 06:16:00,
2013-02-16 01:21:00,31.7,28.3,29.92,West,269,0.0,0.0,87,0.00,,BKN200,0.00,VWS V14.01,2013-02-16 06:21:00,
2013-02-16 01:26:00,31.9,28.2,29.92,West,269,0.0,0.0,86,0.00,,BKN200,0.00,VWS V14.01,2013-02-16 06:26:00,
2013-02-16 01:31:00,32.0,28.3,29.92,West,269,0.0,0.0,86,0.00,,BKN200,0.00,VWS V14.01,2013-02-16 06:31:00,
2013-02-16 01:36:00,32.1,28.4,29.91,West,268,0.0,0.0,86,0.00,,OVC095,0.00,VWS V14.01,2013-02-16 06:36:00,
2013-02-16 01:41:00,32.1,28.4,29.91,West,268,0.0,0.0,86,0.00,,OVC095,0.00,VWS V14.01,2013-02-16 06:41:00,
2013-02-16 01:46:00,32.0,28.3,29.91,West,269,0.0,0.0,86,0.00,,OVC095,0.00,VWS V14.01,2013-02-16 06:46:00,
2013-02-16 01:51:00,32.0,28.3,29.90,West,268,0.0,0.0,86,0.00,,OVC095,0.00,VWS V14.01,2013-02-16 06:51:00,
2013-02-16 01:56:00,32.0,28.3,29.90,West,268,0.0,0.0,86,0.00,,OVC095,0.00,VWS V14.01,2013-02-16 06:56:00,
2013-02-16 02:01:00,32.1,28.4,29.90,West,269,0.0,0.0,86,0.00,,OVC095,0.00,VWS V14.01,2013-02-16 07:01:00,
2013-02-16 02:06:00,32.3,28.9,29.91,West,269,0.0,0.0,87,0.00,,OVC095,0.00,VWS V14.01,2013-02-16 07:06:00,
2013-02-16 02:11:00,32.4,28.7,29.90,West,269,0.0,0.0,86,0.00,,OVC095,0.00,VWS V14.01,2013-02-16 07:11:00,
2013-02-16 02:16:00,32.4,28.4,29.90,West,268,0.0,0.0,85,0.00,,OVC095,0.00,VWS V14.01,2013-02-16 07:16:00,
2013-02-16 02:22:00,32.4,28.4,29.90,West,268,0.0,0.0,85,0.00,,OVC095,0.00,VWS V14.01,2013-02-16 07:22:00,
2013-02-16 02:27:00,32.4,28.7,29.90,West,269,0.0,0.0,86,0.00,,OVC095,0.00,VWS V14.01,2013-02-16 07:27:00,
2013-02-16 02:32:00,32.4,28.7,29.90,West,269,0.0,0.0,86,0.00,,OVC095,0.00,VWS V14.01,2013-02-16 07:32:00,
2013-02-16 02:37:00,32.4,28.7,29.90,West,269,0.0,0.0,86,0.00,,OVC060,0.00,VWS V14.01,2013-02-16 07:37:00,
2013-02-16 02:42:00,32.6,28.6,29.90,West,268,0.0,0.0,85,0.00,,OVC060,0.00,VWS V14.01,2013-02-16 07:42:00,
2013-02-16 02:47:00,32.7,28.7,29.90,West,269,0.0,0.0,85,0.00,,OVC060,0.00,VWS V14.01,2013-02-16 07:47:00,
2013-02-16 02:52:00,32.9,28.9,29.90,West,268,0.0,0.0,85,0.00,,OVC060,0.00,VWS V14.01,2013-02-16 07:52:00,
2013-02-16 02:57:00,32.9,28.9,29.90,West,269,0.0,0.0,85,0.00,,OVC060,0.00,VWS V14.01,2013-02-16 07:57:00,
2013-02-16 03:02:00,33.0,29.0,29.91,West,269,0.0,0.0,85,0.00,,OVC060,0.00,VWS V14.01,2013-02-16 08:02:00,
2013-02-16 03:07:00,33.1,28.8,29.91,WSW,255,0.0,0.0,84,0.00,,OVC060,0.00,VWS V14.01,2013-02-16 08:07:00,
2013-02-16 03:12:00,33.4,28.5,29.91,NW,312,0.0,0.0,82,0.00,,OVC060,0.00,VWS V14.01,2013-02-16 08:12:00,
2013-02-16 03:17:00,33.7,28.5,29.91,NW,312,0.0,0.0,81,0.00,,OVC060,0.00,VWS V14.01,2013-02-16 08:17:00,
2013-02-16 03:23:00,33.8,28.3,29.89,NE,41,0.0,1.0,80,0.00,,OVC060,0.00,VWS V14.01,2013-02-16 08:23:00,
2013-02-16 03:28:00,33.7,28.8,29.86,NE,56,0.0,2.0,82,0.00,,OVC060,0.00,VWS V14.01,2013-02-16 08:28:00,
2013-02-16 03:33:00,33.7,28.5,29.89,West,269,2.0,2.0,81,0.00,,OVC045,0.00,VWS V14.01,2013-02-16 08:33:00,
2013-02-16 03:38:00,33.8,28.9,29.90,WSW,249,0.0,0.0,82,0.00,,OVC045,0.00,VWS V14.01,2013-02-16 08:38:00,
2013-02-16 03:43:00,33.9,28.4,29.90,West,271,1.0,2.0,80,0.00,,OVC045,0.00,VWS V14.01,2013-02-16 08:43:00,
2013-02-16 03:48:00,34.1,28.3,29.90,WSW,249,0.0,1.0,79,0.00,,OVC045,0.00,VWS V14.01,2013-02-16 08:48:00,
2013-02-16 03:53:00,34.6,27.8,29.90,West,263,1.0,3.0,76,0.00,,OVC045,0.00,VWS V14.01,2013-02-16 08:53:00,
2013-02-16 03:58:00,34.9,27.5,29.90,West,281,2.0,3.0,74,0.00,,OVC045,0.00,VWS V14.01,2013-02-16 08:58:00,
2013-02-16 04:03:00,35.0,27.2,29.90,WNW,301,2.0,4.0,73,0.00,,OVC045,0.00,VWS V14.01,2013-02-16 09:03:00,
2013-02-16 04:08:00,35.2,27.4,29.90,West,266,3.0,3.0,73,0.00,,OVC045,0.00,VWS V14.01,2013-02-16 09:08:00,
2013-02-16 04:13:00,35.4,27.3,29.90,West,273,1.0,3.0,72,0.00,,OVC045,0.00,VWS V14.01,2013-02-16 09:13:00,
2013-02-16 04:18:00,35.5,27.7,29.90,WSW,253,0.0,1.0,73,0.00,,OVC045,0.00,VWS V14.01,2013-02-16 09:18:00,
2013-02-16 04:23:00,35.5,28.0,29.90,NNW,330,1.0,4.0,74,0.00,,OVC045,0.00,VWS V14.01,2013-02-16 09:23:00,
2013-02-16 04:28:00,35.5,28.7,29.91,NW,323,2.0,7.0,76,0.00,,OVC045,0.00,VWS V14.01,2013-02-16 09:28:00,
2013-02-16 04:33:00,35.4,29.2,29.91,WNW,284,1.0,4.0,78,0.00,,OVC050,0.00,VWS V14.01,2013-02-16 09:33:00,
2013-02-16 04:38:00,35.3,29.5,29.91,West,275,1.0,6.0,79,0.00,,OVC050,0.00,VWS V14.01,2013-02-16 09:38:00,
2013-02-16 04:43:00,35.1,29.6,29.91,East,82,2.0,3.0,80,0.00,,OVC050,0.00,VWS V14.01,2013-02-16 09:43:00,
2013-02-16 04:48:00,34.8,29.6,29.91,East,98,1.0,3.0,81,0.00,,OVC050,0.00,VWS V14.01,2013-02-16 09:48:00,
2013-02-16 04:53:00,34.5,29.6,29.90,NNW,327,2.0,5.0,82,0.00,,OVC050,0.00,VWS V14.01,2013-02-16 09:53:00,
2013-02-16 04:58:00,34.3,30.0,29.90,NW,309,1.0,5.0,84,0.00,,OVC050,0.00,VWS V14.01,2013-02-16 09:58:00,
2013-02-16 05:03:00,33.9,29.9,29.90,SE,134,0.0,3.0,85,0.00,,OVC050,0.00,VWS V14.01,2013-02-16 10:03:00,
2013-02-16 05:08:00,33.6,29.9,29.91,NNW,336,5.0,7.0,86,0.00,,OVC050,0.00,VWS V14.01,2013-02-16 10:08:00,
2013-02-16 05:13:00,33.4,30.0,29.91,North,11,2.0,6.0,87,0.00,,OVC050,0.00,VWS V14.01,2013-02-16 10:13:00,
2013-02-16 05:18:00,33.2,29.8,29.91,West,278,4.0,5.0,87,0.00,,OVC050,0.00,VWS V14.01,2013-02-16 10:18:00,
2013-02-16 05:23:00,33.0,29.6,29.91,WSW,256,2.0,5.0,87,0.00,,OVC050,0.00,VWS V14.01,2013-02-16 10:23:00,
2013-02-16 05:28:00,32.9,29.5,29.90,WNW,293,1.0,3.0,87,0.00,,OVC050,0.00,VWS V14.01,2013-02-16 10:28:00,
2013-02-16 05:33:00,32.8,29.4,29.90,WNW,296,2.0,4.0,87,0.00,,,0.00,VWS V14.01,2013-02-16 10:33:00,
2013-02-16 05:38:00,32.7,29.3,29.91,West,267,3.0,3.0,87,0.00,,,0.00,VWS V14.01,2013-02-16 10:38:00,
2013-02-16 05:43:00,32.7,29.3,29.91,NNW,348,0.0,3.0,87,0.00,,,0.00,VWS V14.01,2013-02-16 10:43:00,
2013-02-16 05:48:00,32.7,29.3,29.91,NW,314,2.0,5.0,87,0.00,,,0.00,VWS V14.01,2013-02-16 10:48:00,
2013-02-16 05:53:00,32.7,29.3,29.91,NW,323,1.0,3.0,87,0.00,,,0.00,VWS V14.01,2013-02-16 10:53:00,
2013-02-16 05:58:00,32.7,29.3,29.91,SSW,197,0.0,3.0,87,0.00,,,0.00,VWS V14.01,2013-02-16 10:58:00,
2013-02-16 06:03:00,32.7,29.3,29.91,NW,322,1.0,2.0,87,0.00,,,0.00,VWS V14.01,2013-02-16 11:03:00,
2013-02-16 06:08:00,32.6,29.2,29.90,West,264,4.0,5.0,87,0.00,,,0.00,VWS V14.01,2013-02-16 11:08:00,
2013-02-16 06:13:00,32.6,28.9,29.90,South,186,0.0,2.0,86,0.00,,,0.00,VWS V14.01,2013-02-16 11:13:00,
2013-02-16 06:18:00,32.6,28.9,29.91,WSW,255,0.0,2.0,86,0.00,,,0.00,VWS V14.01,2013-02-16 11:18:00,
2013-02-16 06:23:00,32.6,28.9,29.90,WNW,294,3.0,4.0,86,0.00,,,0.00,VWS V14.01,2013-02-16 11:23:00,
2013-02-16 06:28:00,32.6,28.9,29.90,NW,325,2.0,2.0,86,0.00,,,0.00,VWS V14.01,2013-02-16 11:28:00,
2013-02-16 06:33:00,32.6,28.9,29.90,NNE,18,2.0,4.0,86,0.00,,,0.00,VWS V14.01,2013-02-16 11:33:00,
2013-02-16 06:38:00,32.6,28.9,29.90,WSW,238,1.0,3.0,86,0.00,,,0.00,VWS V14.01,2013-02-16 11:38:00,
2013-02-16 06:43:00,32.5,28.8,29.90,SW,235,0.0,2.0,86,0.00,,,0.00,VWS V14.01,2013-02-16 11:43:00,
2013-02-16 06:48:00,32.5,28.8,29.90,NNW,342,0.0,1.0,86,0.00,,,0.00,VWS V14.01,2013-02-16 11:48:00,
2013-02-16 06:53:00,32.5,28.5,29.90,East,79,0.0,1.0,85,0.00,,,0.00,VWS V14.01,2013-02-16 11:53:00,
2013-02-16 06:58:00,32.5,28.5,29.90,West,277,1.0,1.0,85,0.00,,,0.00,VWS V14.01,2013-02-16 11:58:00,
2013-02-16 07:03:00,32.5,28.5,29.90,West,259,2.0,4.0,85,0.00,,,0.00,VWS V14.01,2013-02-16 12:03:00,
2013-02-16 07:08:00,32.5,28.5,29.90,NNW,348,1.0,4.0,85,0.00,,,0.00,VWS V14.01,2013-02-16 12:08:00,
2013-02-16 07:13:00,32.5,28.5,29.90,North,8,1.0,2.0,85,0.00,,,0.00,VWS V14.01,2013-02-16 12:13:00,
2013-02-16 07:18:00,32.5,28.5,29.91,North,350,3.0,3.0,85,0.00,,,0.00,VWS V14.01,2013-02-16 12:18:00,
2013-02-16 07:23:00,32.5,28.5,29.91,NE,39,0.0,4.0,85,0.00,,,0.00,VWS V14.01,2013-02-16 12:23:00,
2013-02-16 07:28:00,32.5,28.5,29.90,NNE,30,3.0,3.0,85,0.00,,,0.00,VWS V14.01,2013-02-16 12:28:00,
2013-02-16 07:33:00,32.5,28.5,29.90,NNW,337,2.0,4.0,85,0.00,,,0.00,VWS V14.01,2013-02-16 12:33:00,
2013-02-16 07:38:00,32.5,28.8,29.90,NW,322,1.0,2.0,86,0.00,,,0.00,VWS V14.01,2013-02-16 12:38:00,
2013-02-16 07:43:00,32.6,28.9,29.90,NNE,26,1.0,1.0,86,0.00,,,0.00,VWS V14.01,2013-02-16 12:43:00,
2013-02-16 07:48:00,32.6,28.6,29.90,NNE,15,1.0,3.0,85,0.00,,,0.00,VWS V14.01,2013-02-16 12:48:00,
2013-02-16 07:53:00,32.7,28.7,29.91,WSW,253,2.0,2.0,85,0.00,,,0.00,VWS V14.01,2013-02-16 12:53:00,
2013-02-16 07:58:00,32.7,28.7,29.91,NNW,328,1.0,1.0,85,0.00,,,0.00,VWS V14.01,2013-02-16 12:58:00,
2013-02-16 08:03:00,32.7,28.7,29.91,NW,315,1.0,2.0,85,0.00,,,0.00,VWS V14.01,2013-02-16 13:03:00,
2013-02-16 08:08:00,32.7,28.7,29.91,NNE,23,0.0,2.0,85,0.00,,,0.00,VWS V14.01,2013-02-16 13:08:00,
2013-02-16 08:13:00,32.8,28.8,29.91,WNW,302,2.0,4.0,85,0.00,,,0.00,VWS V14.01,2013-02-16 13:13:00,
2013-02-16 08:18:00,32.8,29.1,29.91,NNW,336,1.0,2.0,86,0.00,,,0.00,VWS V14.01,2013-02-16 13:18:00,
2013-02-16 08:23:00,32.9,28.9,29.91,WNW,300,3.0,3.0,85,0.00,,,0.00,VWS V14.01,2013-02-16 13:23:00,
2013-02-16 08:28:00,32.9,29.2,29.91,WSW,240,1.0,1.0,86,0.00,,,0.00,VWS V14.01,2013-02-16 13:28:00,
2013-02-16 08:33:00,32.9,29.2,29.91,NNE,20,0.0,1.0,86,0.00,,,0.00,VWS V14.01,2013-02-16 13:33:00,
2013-02-16 08:38:00,32.9,29.2,29.91,West,270,0.0,2.0,86,0.00,,,0.00,VWS V14.01,2013-02-16 13:38:00,
2013-02-16 08:43:00,32.9,29.2,29.91,NNE,13,0.0,2.0,86,0.00,,,0.00,VWS V14.01,2013-02-16 13:43:00,
2013-02-16 08:48:00,33.0,29.3,29.91,WSW,256,0.0,2.0,86,0.00,,,0.00,VWS V14.01,2013-02-16 13:48:00,
2013-02-16 08:53:00,33.2,29.5,29.91,NNW,341,2.0,2.0,86,0.00,,,0.00,VWS V14.01,2013-02-16 13:53:00,
2013-02-16 08:58:00,33.2,29.5,29.91,NNW,347,0.0,1.0,86,0.00,,,0.00,VWS V14.01,2013-02-16 13:58:00,
2013-02-16 09:03:00,33.4,29.7,29.91,NW,316,0.0,1.0,86,0.00,,,0.00,VWS V14.01,2013-02-16 14:03:00,
2013-02-16 09:08:00,33.4,29.7,29.91,WNW,282,1.0,1.0,86,0.00,,,0.00,VWS V14.01,2013-02-16 14:08:00,
2013-02-16 09:13:00,33.4,29.7,29.92,West,261,1.0,2.0,86,0.00,,,0.00,VWS V14.01,2013-02-16 14:13:00,
2013-02-16 09:18:00,33.5,29.8,29.92,WSW,250,0.0,0.0,86,0.00,,,0.00,VWS V14.01,2013-02-16 14:18:00,
2013-02-16 09:23:00,33.5,29.8,29.91,WSW,255,1.0,3.0,86,0.00,,,0.00,VWS V14.01,2013-02-16 14:23:00,
2013-02-16 09:28:00,33.4,29.7,29.91,NW,304,1.0,3.0,86,0.00,,,0.00,VWS V14.01,2013-02-16 14:28:00,
2013-02-16 09:33:00,33.4,29.7,29.91,West,280,1.0,2.0,86,0.00,,,0.00,VWS V14.01,2013-02-16 14:33:00,
2013-02-16 09:38:00,33.6,29.9,29.91,West,270,0.0,1.0,86,0.00,,,0.00,VWS V14.01,2013-02-16 14:38:00,
2013-02-16 09:43:00,34.1,30.1,29.91,WSW,240,1.0,2.0,85,0.00,,,0.00,VWS V14.01,2013-02-16 14:43:00,
2013-02-16 09:48:00,34.4,30.6,29.91,West,281,0.0,1.0,86,0.00,,,0.00,VWS V14.01,2013-02-16 14:48:00,
2013-02-16 09:53:00,34.5,31.0,29.91,NW,312,1.0,1.0,87,0.00,,,0.00,VWS V14.01,2013-02-16 14:53:00,
2013-02-16 09:58:00,34.9,31.4,29.90,NNW,333,0.0,2.0,87,0.00,,,0.00,VWS V14.01,2013-02-16 14:58:00,
2013-02-16 10:03:00,35.2,31.7,29.90,NNW,327,0.0,2.0,87,0.00,,,0.00,VWS V14.01,2013-02-16 15:03:00,
2013-02-16 10:08:00,35.4,31.9,29.90,North,352,1.0,3.0,87,0.00,,,0.00,VWS V14.01,2013-02-16 15:08:00,
2013-02-16 10:13:00,35.5,31.7,29.90,West,278,2.0,5.0,86,0.00,,,0.00,VWS V14.01,2013-02-16 15:13:00,
2013-02-16 10:18:00,35.7,31.9,29.90,North,4,0.0,1.0,86,0.00,,,0.00,VWS V14.01,2013-02-16 15:18:00,
2013-02-16 10:23:00,35.7,31.6,29.89,NNE,18,0.0,2.0,85,0.00,,,0.00,VWS V14.01,2013-02-16 15:23:00,
2013-02-16 10:28:00,36.0,31.9,29.89,North,8,2.0,3.0,85,0.00,,,0.00,VWS V14.01,2013-02-16 15:28:00,
2013-02-16 10:33:00,36.0,31.4,29.90,North,359,1.0,2.0,83,0.00,,,0.00,VWS V14.01,2013-02-16 15:33:00,
2013-02-16 10:38:00,36.1,31.5,29.89,North,355,1.0,2.0,83,0.00,,OVC200,0.00,VWS V14.01,2013-02-16 15:38:00,
2013-02-16 10:43:00,36.5,31.5,29.89,ENE,64,1.0,2.0,82,0.00,,OVC200,0.00,VWS V14.01,2013-02-16 15:43:00,
2013-02-16 10:48:00,36.5,30.6,29.89,NE,53,2.0,4.0,79,0.00,,OVC200,0.00,VWS V14.01,2013-02-16 15:48:00,
2013-02-16 10:53:00,36.5,31.2,29.89,NE,56,0.0,1.0,81,0.00,,OVC200,0.00,VWS V14.01,2013-02-16 15:53:00,
2013-02-16 10:58:00,36.8,30.9,29.89,North,11,2.0,4.0,79,0.00,,OVC200,0.00,VWS V14.01,2013-02-16 15:58:00,
2013-02-16 11:03:00,36.7,30.5,29.88,NE,37,1.0,1.0,78,0.00,,OVC200,0.00,VWS V14.01,2013-02-16 16:03:00,
2013-02-16 11:08:00,36.9,30.7,29.88,NE,41,3.0,4.0,78,0.00,,OVC200,0.00,VWS V14.01,2013-02-16 16:08:00,
2013-02-16 11:13:00,37.1,30.9,29.88,NW,323,0.0,2.0,78,0.00,,OVC200,0.00,VWS V14.01,2013-02-16 16:13:00,
2013-02-16 11:18:00,37.4,30.5,29.88,NNW,344,4.0,4.0,76,0.00,,OVC200,0.00,VWS V14.01,2013-02-16 16:18:00,
2013-02-16 11:23:00,37.6,31.1,29.88,NNE,12,1.0,1.0,77,0.00,,OVC200,0.00,VWS V14.01,2013-02-16 16:23:00,
2013-02-16 11:28:00,37.7,30.8,29.88,NNW,343,3.0,3.0,76,0.00,,OVC200,0.00,VWS V14.01,2013-02-16 16:28:00,
2013-02-16 11:33:00,37.7,31.1,29.88,NW,316,0.0,1.0,77,0.00,,OVC200,0.00,VWS V14.01,2013-02-16 16:33:00,
2013-02-16 11:39:00,37.9,30.7,29.88,North,349,3.0,3.0,75,0.00,,OVC250,0.00,VWS V14.01,2013-02-16 16:39:00,
2013-02-16 11:44:00,37.8,30.6,29.87,ENE,60,3.0,3.0,75,0.00,,OVC250,0.00,VWS V14.01,2013-02-16 16:44:00,
2013-02-16 11:49:00,37.9,30.7,29.87,West,259,0.0,0.0,75,0.00,,OVC250,0.00,VWS V14.01,2013-02-16 16:49:00,
2013-02-16 11:54:00,38.2,30.7,29.87,NE,43,2.0,3.0,74,0.00,,OVC250,0.00,VWS V14.01,2013-02-16 16:54:00,
2013-02-16 11:59:00,38.3,31.1,29.87,WSW,249,0.0,2.0,75,0.00,,OVC250,0.00,VWS V14.01,2013-02-16 16:59:00,
2013-02-16 12:04:00,38.5,30.6,29.87,NNE,13,2.0,3.0,73,0.00,,OVC250,0.00,VWS V14.01,2013-02-16 17:04:00,
2013-02-16 12:09:00,38.2,30.7,29.87,NNE,18,3.0,3.0,74,0.00,,OVC250,0.00,VWS V14.01,2013-02-16 17:09:00,
2013-02-16 12:14:00,38.2,31.0,29.87,NNW,339,0.0,1.0,75,0.00,,OVC250,0.00,VWS V14.01,2013-02-16 17:14:00,
2013-02-16 12:19:00,38.7,31.1,29.86,North,354,2.0,3.0,74,0.00,,OVC250,0.00,VWS V14.01,2013-02-16 17:19:00,
2013-02-16 12:24:00,38.8,30.9,29.86,North,360,1.0,2.0,73,0.00,,OVC250,0.00,VWS V14.01,2013-02-16 17:24:00,
2013-02-16 12:29:00,38.8,30.9,29.86,NNW,336,0.0,1.0,73,0.00,,OVC250,0.00,VWS V14.01,2013-02-16 17:29:00,
2013-02-16 12:34:00,38.6,30.4,29.86,North,358,1.0,3.0,72,0.00,,OVC210,0.00,VWS V14.01,2013-02-16 17:34:00,
2013-02-16 12:39:00,38.5,30.3,29.85,NE,43,0.0,2.0,72,0.00,,OVC210,0.00,VWS V14.01,2013-02-16 17:39:00,
2013-02-16 12:44:00,38.8,30.9,29.85,North,358,0.0,1.0,73,0.00,,OVC210,0.00,VWS V14.01,2013-02-16 17:44:00,
2013-02-16 12:49:00,38.7,30.5,29.85,East,94,2.0,5.0,72,0.00,,OVC210,0.00,VWS V14.01,2013-02-16 17:49:00,
2013-02-16 12:54:00,38.7,30.5,29.85,East,89,1.0,2.0,72,0.00,,OVC210,0.00,VWS V14.01,2013-02-16 17:54:00,
2013-02-16 12:59:00,38.5,30.3,29.85,ENE,70,2.0,4.0,72,0.00,,OVC210,0.00,VWS V14.01,2013-02-16 17:59:00,
2013-02-16 13:04:00,38.7,30.8,29.85,NE,51,2.0,3.0,73,0.00,,OVC210,0.00,VWS V14.01,2013-02-16 18:04:00,
2013-02-16 13:09:00,38.7,30.1,29.85,NE,44,2.0,3.0,71,0.00,,OVC210,0.00,VWS V14.01,2013-02-16 18:09:00,
2013-02-16 13:14:00,38.7,30.5,29.85,NNE,20,0.0,1.0,72,0.00,,OVC210,0.00,VWS V14.01,2013-02-16 18:14:00,
2013-02-16 13:19:00,38.9,30.3,29.84,NNE,12,2.0,4.0,71,0.00,,OVC210,0.00,VWS V14.01,2013-02-16 18:19:00,
2013-02-16 13:24:00,39.2,29.5,29.84,NE,36,4.0,4.0,68,0.00,,OVC210,0.00,VWS V14.01,2013-02-16 18:24:00,
2013-02-16 13:29:00,39.2,29.9,29.84,NNE,20,1.0,3.0,69,0.00,,OVC210,0.00,VWS V14.01,2013-02-16 18:29:00,
2013-02-16 13:34:00,39.5,30.2,29.83,NE,43,1.0,2.0,69,0.00,,OVC100,0.00,VWS V14.01,2013-02-16 18:34:00,
2013-02-16 13:39:00,39.8,30.1,29.84,NNW,330,2.0,4.0,68,0.00,,OVC100,0.00,VWS V14.01,2013-02-16 18:39:00,
2013-02-16 13:44:00,39.9,29.9,29.83,NW,311,0.0,1.0,67,0.00,,OVC100,0.00,VWS V14.01,2013-02-16 18:44:00,
2013-02-16 13:49:00,40.0,29.6,29.83,NE,43,2.0,4.0,66,0.00,,OVC100,0.00,VWS V14.01,2013-02-16 18:49:00,
2013-02-16 13:54:00,40.0,29.6,29.83,NE,54,3.0,3.0,66,0.00,,OVC100,0.00,VWS V14.01,2013-02-16 18:54:00,
2013-02-16 13:59:00,39.9,28.7,29.83,ENE,61,2.0,3.0,64,0.00,,OVC100,0.00,VWS V14.01,2013-02-16 18:59:00,
2013-02-16 14:04:00,39.9,28.3,29.83,North,351,1.0,1.0,63,0.00,,OVC100,0.00,VWS V14.01,2013-02-16 19:04:00,
2013-02-16 14:09:00,40.0,28.4,29.83,ENE,68,1.0,2.0,63,0.00,,OVC100,0.00,VWS V14.01,2013-02-16 19:09:00,
2013-02-16 14:14:00,40.1,27.8,29.83,NNE,23,2.0,3.0,61,0.00,,OVC100,0.00,VWS V14.01,2013-02-16 19:14:00,
2013-02-16 14:19:00,40.1,27.4,29.83,NNE,32,1.0,1.0,60,0.00,,OVC100,0.00,VWS V14.01,2013-02-16 19:19:00,
2013-02-16 14:24:00,40.1,27.4,29.83,NNE,30,2.0,3.0,60,0.00,,OVC100,0.00,VWS V14.01,2013-02-16 19:24:00,
2013-02-16 14:29:00,40.0,26.4,29.83,ENE,74,2.0,3.0,58,0.00,,OVC100,0.00,VWS V14.01,2013-02-16 19:29:00,
2013-02-16 14:34:00,39.8,26.2,29.83,NNW,340,2.0,2.0,58,0.00,,OVC100,0.00,VWS V14.01,2013-02-16 19:34:00,
2013-02-16 14:39:00,39.7,26.1,29.82,North,359,1.0,2.0,58,0.00,,OVC095,0.00,VWS V14.01,2013-02-16 19:39:00,
2013-02-16 14:44:00,39.8,26.2,29.82,ENE,70,0.0,2.0,58,0.00,,OVC095,0.00,VWS V14.01,2013-02-16 19:44:00,
2013-02-16 14:49:00,39.8,26.7,29.83,North,6,0.0,2.0,59,0.00,,OVC095,0.00,VWS V14.01,2013-02-16 19:49:00,
2013-02-16 14:54:00,39.7,26.1,29.82,NE,41,2.0,2.0,58,0.00,,OVC095,0.00,VWS V14.01,2013-02-16 19:54:00,
2013-02-16 14:59:00,39.6,25.6,29.82,ENE,67,4.0,4.0,57,0.00,,OVC095,0.00,VWS V14.01,2013-02-16 19:59:00,
2013-02-16 15:04:00,39.6,26.1,29.82,NE,39,3.0,3.0,58,0.00,,OVC095,0.00,VWS V14.01,2013-02-16 20:04:00,
2013-02-16 15:09:00,39.8,25.0,29.82,West,260,1.0,2.0,55,0.00,,OVC095,0.00,VWS V14.01,2013-02-16 20:09:00,
2013-02-16 15:14:00,39.9,25.1,29.82,NNE,30,0.0,0.0,55,0.00,,OVC095,0.00,VWS V14.01,2013-02-16 20:14:00,
2013-02-16 15:19:00,39.9,24.6,29.82,NNE,25,1.0,2.0,54,0.00,,OVC095,0.00,VWS V14.01,2013-02-16 20:19:00,
2013-02-16 15:24:00,40.0,25.6,29.82,NNE,13,1.0,2.0,56,0.00,,OVC095,0.00,VWS V14.01,2013-02-16 20:24:00,
2013-02-16 15:29:00,39.8,25.0,29.82,NNE,16,1.0,3.0,55,0.00,,OVC095,0.00,VWS V14.01,2013-02-16 20:29:00,
2013-02-16 15:34:00,39.6,28.4,29.81,East,82,3.0,3.0,64,0.00,,OVC100,0.00,VWS V14.01,2013-02-16 20:34:00,
2013-02-16 15:39:00,39.1,30.9,29.82,East,83,1.0,2.0,72,0.00,,OVC100,0.00,VWS V14.01,2013-02-16 20:39:00,
2013-02-16 15:44:00,38.7,28.7,29.82,ENE,74,1.0,1.0,67,0.00,,OVC100,0.00,VWS V14.01,2013-02-16 20:44:00,
2013-02-16 15:49:00,39.1,25.2,29.82,ENE,58,1.0,4.0,57,0.00,,OVC100,0.00,VWS V14.01,2013-02-16 20:49:00,
2013-02-16 15:54:00,39.4,24.6,29.81,NE,34,2.0,4.0,55,0.00,,OVC100,0.00,VWS V14.01,2013-02-16 20:54:00,
2013-02-16 15:59:00,39.0,30.8,29.81,ENE,70,1.0,3.0,72,0.00,,OVC100,0.00,VWS V14.01,2013-02-16 20:59:00,
2013-02-16 16:04:00,38.5,31.3,29.81,ENE,64,1.0,2.0,75,0.00,,OVC100,0.00,VWS V14.01,2013-02-16 21:04:00,
2013-02-16 16:09:00,38.3,31.7,29.81,ENE,68,1.0,1.0,77,0.00,,OVC100,0.00,VWS V14.01,2013-02-16 21:09:00,
2013-02-16 16:14:00,38.2,28.9,29.81,ENE,68,3.0,4.0,69,0.00,,OVC100,0.00,VWS V14.01,2013-02-16 21:14:00,
2013-02-16 16:19:00,38.6,24.7,29.81,North,11,0.0,0.0,57,0.00,,OVC100,0.00,VWS V14.01,2013-02-16 21:19:00,
2013-02-16 16:24:00,39.0,23.8,29.81,NNE,15,0.0,0.0,54,0.00,,OVC100,0.00,VWS V14.01,2013-02-16 21:24:00,
2013-02-16 16:29:00,39.1,23.9,29.80,East,82,3.0,3.0,54,0.00,,OVC100,0.00,VWS V14.01,2013-02-16 21:29:00,
2013-02-16 16:34:00,38.3,31.1,29.80,East,89,2.0,3.0,75,0.00,,OVC250,0.00,VWS V14.01,2013-02-16 21:34:00,
2013-02-16 16:39:00,37.9,31.7,29.80,ENE,58,2.0,2.0,78,0.00,,OVC250,0.00,VWS V14.01,2013-02-16 21:39:00,
2013-02-16 16:44:00,37.6,31.7,29.80,ENE,70,3.0,4.0,79,0.00,,OVC250,0.00,VWS V14.01,2013-02-16 21:44:00,
2013-02-16 16:49:00,37.4,32.1,29.80,East,89,1.0,2.0,81,0.00,,OVC250,0.00,VWS V14.01,2013-02-16 21:49:00,
2013-02-16 16:54:00,37.2,32.2,29.80,SE,129,2.0,3.0,82,0.00,,OVC250,0.00,VWS V14.01,2013-02-16 21:54:00,
2013-02-16 16:59:00,37.1,32.4,29.80,NNE,20,3.0,3.0,83,0.00,,OVC250,0.00,VWS V14.01,2013-02-16 21:59:00,
2013-02-16 17:04:00,36.8,32.4,29.80,East,86,1.0,1.0,84,0.00,,OVC250,0.00,VWS V14.01,2013-02-16 22:04:00,
2013-02-16 17:09:00,36.7,32.3,29.80,East,89,3.0,3.0,84,0.00,,OVC250,0.00,VWS V14.01,2013-02-16 22:09:00,
2013-02-16 17:14:00,36.6,32.2,29.80,NE,53,1.0,2.0,84,0.00,,OVC250,0.00,VWS V14.01,2013-02-16 22:14:00,
2013-02-16 17:19:00,36.5,32.1,29.80,ENE,65,2.0,2.0,84,0.00,,OVC250,0.00,VWS V14.01,2013-02-16 22:19:00,
2013-02-16 17:24:00,36.5,32.1,29.80,ENE,67,0.0,1.0,84,0.00,,OVC250,0.00,VWS V14.01,2013-02-16 22:24:00,
2013-02-16 17:29:00,36.4,32.0,29.80,NE,53,3.0,3.0,84,0.00,,OVC250,0.00,VWS V14.01,2013-02-16 22:29:00,
2013-02-16 17:34:00,36.4,31.7,29.80,ENE,77,1.0,1.0,83,0.00,,OVC250,0.00,VWS V14.01,2013-02-16 22:34:00,
2013-02-16 17:39:00,36.5,31.5,29.80,ENE,61,1.0,1.0,82,0.00,,OVC250,0.00,VWS V14.01,2013-02-16 22:39:00,
2013-02-16 17:44:00,36.4,31.7,29.81,NE,56,0.0,0.0,83,0.00,,OVC250,0.00,VWS V14.01,2013-02-16 22:44:00,
2013-02-16 17:49:00,36.4,31.7,29.81,ENE,58,0.0,0.0,83,0.00,,OVC250,0.00,VWS V14.01,2013-02-16 22:49:00,
2013-02-16 17:54:00,36.3,31.6,29.81,ENE,58,0.0,0.0,83,0.00,,OVC250,0.00,VWS V14.01,2013-02-16 22:54:00,
2013-02-16 17:59:00,36.3,31.0,29.81,NNW,327,0.0,0.0,81,0.00,,OVC250,0.00,VWS V14.01,2013-02-16 22:59:00,
2013-02-16 18:04:00,36.3,28.8,29.81,North,11,1.0,3.0,74,0.00,,OVC250,0.00,VWS V14.01,2013-02-16 23:04:00,
2013-02-16 18:09:00,36.3,26.8,29.81,North,11,0.0,1.0,68,0.00,,OVC250,0.00,VWS V14.01,2013-02-16 23:09:00,
2013-02-16 18:14:00,36.4,25.0,29.82,North,6,1.0,2.0,63,0.00,,OVC250,0.00,VWS V14.01,2013-02-16 23:14:00,
2013-02-16 18:19:00,36.5,24.0,29.81,NNE,18,1.0,1.0,60,0.00,,OVC250,0.00,VWS V14.01,2013-02-16 23:19:00,
2013-02-16 18:24:00,36.5,24.0,29.81,North,1,0.0,1.0,60,0.00,,OVC250,0.00,VWS V14.01,2013-02-16 23:24:00,
2013-02-16 18:29:00,36.6,23.2,29.82,NE,36,1.0,3.0,58,0.00,,OVC250,0.00,VWS V14.01,2013-02-16 23:29:00,
2013-02-16 18:34:00,36.6,23.2,29.82,NNE,16,1.0,2.0,58,0.00,,OVC250,0.00,VWS V14.01,2013-02-16 23:34:00,
2013-02-16 18:39:00,36.5,23.1,29.82,NNW,344,0.0,0.0,58,0.00,,OVC250,0.00,VWS V14.01,2013-02-16 23:39:00,
2013-02-16 18:44:00,36.4,22.6,29.82,North,9,1.0,2.0,57,0.00,,OVC250,0.00,VWS V14.01,2013-02-16 23:44:00,
2013-02-16 18:49:00,36.4,23.0,29.81,NNE,25,2.0,4.0,58,0.00,,OVC250,0.00,VWS V14.01,2013-02-16 23:49:00,
2013-02-16 18:54:00,36.3,23.0,29.81,NNW,344,1.0,4.0,58,0.00,,OVC250,0.00,VWS V14.01,2013-02-16 23:54:00,
2013-02-16 18:59:00,36.2,23.3,29.81,NW,324,2.0,4.0,59,0.00,,OVC250,0.00,VWS V14.01,2013-02-16 23:59:00,
2013-02-16 19:04:00,36.1,24.0,29.81,NNE,29,1.0,2.0,61,0.00,,OVC250,0.00,VWS V14.01,2013-02-17 00:04:00,
2013-02-16 19:09:00,36.0,25.4,29.81,North,6,2.0,4.0,65,0.00,,OVC250,0.00,VWS V14.01,2013-02-17 00:09:00,
2013-02-16 19:14:00,35.9,25.7,29.81,ENE,65,3.0,3.0,66,0.00,,OVC250,0.00,VWS V14.01,2013-02-17 00:14:00,
2013-02-16 19:19:00,35.8,27.0,29.80,NNW,334,2.0,2.0,70,0.00,,OVC250,0.00,VWS V14.01,2013-02-17 00:19:00,
2013-02-16 19:24:00,35.7,27.6,29.80,NE,39,4.0,7.0,72,0.00,,OVC250,0.00,VWS V14.01,2013-02-17 00:24:00,
2013-02-16 19:29:00,35.4,28.0,29.80,NE,40,3.0,6.0,74,0.00,,OVC250,0.00,VWS V14.01,2013-02-17 00:29:00,
2013-02-16 19:34:00,35.2,28.1,29.80,North,8,1.0,2.0,75,0.00,,OVC250,0.00,VWS V14.01,2013-02-17 00:34:00,
2013-02-16 19:39:00,35.1,28.3,29.80,NE,43,3.0,5.0,76,0.00,,OVC250,0.00,VWS V14.01,2013-02-17 00:39:00,
2013-02-16 19:44:00,34.9,28.4,29.80,ENE,65,4.0,5.0,77,0.00,,OVC250,0.00,VWS V14.01,2013-02-17 00:44:00,
2013-02-16 19:49:00,34.6,28.5,29.80,North,9,3.0,7.0,78,0.00,,OVC250,0.00,VWS V14.01,2013-02-17 00:49:00,
2013-02-16 19:54:00,34.2,28.7,29.80,NNE,13,6.0,6.0,80,0.00,,OVC250,0.00,VWS V14.01,2013-02-17 00:54:00,
2013-02-16 19:59:00,34.0,28.5,29.80,NE,44,2.0,4.0,80,0.00,,OVC250,0.00,VWS V14.01,2013-02-17 00:59:00,
2013-02-16 20:04:00,33.8,28.3,29.80,ENE,68,4.0,10.0,80,0.00,,OVC250,0.00,VWS V14.01,2013-02-17 01:04:00,
2013-02-16 20:09:00,33.7,28.2,29.80,NE,40,3.0,7.0,80,0.00,,OVC250,0.00,VWS V14.01,2013-02-17 01:09:00,
2013-02-16 20:14:00,33.6,28.4,29.79,SSE,160,2.0,8.0,81,0.00,,OVC250,0.00,VWS V14.01,2013-02-17 01:14:00,
2013-02-16 20:19:00,33.4,27.6,29.79,NNE,33,3.0,4.0,79,0.00,,OVC250,0.00,VWS V14.01,2013-02-17 01:19:00,
2013-02-16 20:24:00,33.3,27.5,29.79,ENE,77,3.0,6.0,79,0.00,,OVC250,0.00,VWS V14.01,2013-02-17 01:24:00,
2013-02-16 20:29:00,33.2,26.8,29.79,NE,53,6.0,8.0,77,0.00,,OVC250,0.00,VWS V14.01,2013-02-17 01:29:00,
2013-02-16 20:34:00,33.2,26.1,29.79,North,350,3.0,6.0,75,0.00,,OVC200,0.00,VWS V14.01,2013-02-17 01:34:00,
2013-02-16 20:39:00,33.2,25.2,29.79,NE,51,2.0,6.0,72,0.00,,OVC200,0.00,VWS V14.01,2013-02-17 01:39:00,
2013-02-16 20:44:00,33.2,24.8,29.78,NE,49,3.0,4.0,71,0.00,,OVC200,0.00,VWS V14.01,2013-02-17 01:44:00,
2013-02-16 20:49:00,33.2,24.8,29.78,ENE,60,2.0,3.0,71,0.00,,OVC200,0.00,VWS V14.01,2013-02-17 01:49:00,
2013-02-16 20:54:00,33.1,24.7,29.78,NNE,13,0.0,1.0,71,0.00,,OVC200,0.00,VWS V14.01,2013-02-17 01:54:00,
2013-02-16 20:59:00,33.1,24.4,29.78,NNE,13,1.0,2.0,70,0.00,,OVC200,0.00,VWS V14.01,2013-02-17 01:59:00,
2013-02-16 21:04:00,33.1,24.0,29.78,ENE,77,3.0,5.0,69,0.00,,OVC200,0.00,VWS V14.01,2013-02-17 02:04:00,
2013-02-16 21:09:00,33.2,23.8,29.77,NE,37,4.0,6.0,68,0.00,,OVC200,0.00,VWS V14.01,2013-02-17 02:09:00,
2013-02-16 21:14:00,33.2,23.5,29.77,ENE,67,2.0,5.0,67,0.00,,OVC200,0.00,VWS V14.01,2013-02-17 02:14:00,
2013-02-16 21:19:00,33.2,23.5,29.77,NNE,26,4.0,4.0,67,0.00,,OVC200,0.00,VWS V14.01,2013-02-17 02:19:00,
2013-02-16 21:24:00,33.2,23.1,29.78,ENE,71,0.0,3.0,66,0.00,,OVC200,0.00,VWS V14.01,2013-02-17 02:24:00,
2013-02-16 21:29:00,33.1,23.0,29.77,North,4,2.0,4.0,66,0.00,,OVC200,0.00,VWS V14.01,2013-02-17 02:29:00,
2013-02-16 21:34:00,33.1,22.6,29.76,NE,36,4.0,6.0,65,0.00,,OVC200,0.00,VWS V14.01,2013-02-17 02:34:00,
2013-02-16 21:39:00,33.0,22.5,29.76,NNE,30,5.0,7.0,65,0.00,,OVC200,0.00,VWS V14.01,2013-02-17 02:39:00,
2013-02-16 21:44:00,33.0,22.2,29.76,NNE,13,2.0,3.0,64,0.00,,OVC200,0.00,VWS V14.01,2013-02-17 02:44:00,
2013-02-16 21:49:00,32.9,21.7,29.76,NNE,32,3.0,3.0,63,0.00,,OVC200,0.00,VWS V14.01,2013-02-17 02:49:00,
2013-02-16 21:54:00,32.8,21.2,29.76,NE,56,2.0,3.0,62,0.00,,OVC200,0.00,VWS V14.01,2013-02-17 02:54:00,
2013-02-16 21:59:00,32.7,20.8,29.76,NNW,341,3.0,4.0,61,0.00,,OVC200,0.00,VWS V14.01,2013-02-17 02:59:00,
2013-02-16 22:05:00,32.7,20.8,29.76,ENE,60,4.0,4.0,61,0.00,,OVC200,0.00,VWS V14.01,2013-02-17 03:05:00,
2013-02-16 22:10:00,32.5,20.6,29.76,NE,47,4.0,6.0,61,0.00,,OVC200,0.00,VWS V14.01,2013-02-17 03:10:00,
2013-02-16 22:15:00,32.4,20.5,29.75,NNE,20,3.0,6.0,61,0.00,,OVC200,0.00,VWS V14.01,2013-02-17 03:15:00,
2013-02-16 22:20:00,32.4,20.1,29.76,ENE,65,3.0,4.0,60,0.00,,OVC200,0.00,VWS V14.01,2013-02-17 03:20:00,
2013-02-16 22:25:00,32.3,20.4,29.75,NNW,339,2.0,5.0,61,0.00,,OVC200,0.00,VWS V14.01,2013-02-17 03:25:00,
2013-02-16 22:30:00,32.3,20.0,29.74,North,351,6.0,9.0,60,0.00,,OVC200,0.00,VWS V14.01,2013-02-17 03:30:00,
2013-02-16 22:35:00,32.1,20.2,29.74,NE,36,3.0,9.0,61,0.00,,OVC200,0.00,VWS V14.01,2013-02-17 03:35:00,
2013-02-16 22:40:00,32.1,19.8,29.75,NNE,26,4.0,5.0,60,0.00,,OVC200,0.00,VWS V14.01,2013-02-17 03:40:00,
2013-02-16 22:45:00,32.0,20.1,29.75,NNE,25,1.0,5.0,61,0.00,,OVC200,0.00,VWS V14.01,2013-02-17 03:45:00,
2013-02-16 22:50:00,31.9,19.6,29.74,NE,36,3.0,9.0,60,0.00,,OVC200,0.00,VWS V14.01,2013-02-17 03:50:00,
2013-02-16 22:55:00,31.8,19.9,29.75,NNE,23,1.0,3.0,61,0.00,,OVC200,0.00,VWS V14.01,2013-02-17 03:55:00,
2013-02-16 22:57:00,30.9,15.8,29.69,NE,36,9.0,10.0,53,0.00,,OVC070,0.00,VWS V14.01,2013-02-17 03:57:00,
2013-02-16 22:58:00,30.9,15.8,29.69,NNE,20,6.0,10.0,53,0.00,,OVC070,0.00,VWS V14.01,2013-02-17 03:58:00,
2013-02-16 22:59:00,30.8,15.3,29.69,NNE,16,5.0,10.0,52,0.00,,OVC070,0.00,VWS V14.01,2013-02-17 03:59:00,
2013-02-16 23:00:00,31.7,20.2,29.74,North,350,4.0,6.0,62,0.00,,OVC200,0.00,VWS V14.01,2013-02-17 04:00:00,
2013-02-16 23:01:00,30.8,15.7,29.69,NNE,33,4.0,5.0,53,0.00,,OVC070,0.00,VWS V14.01,2013-02-17 04:01:00,
2013-02-16 23:02:00,30.8,15.7,29.69,NE,56,4.0,6.0,53,0.00,,OVC070,0.00,VWS V14.01,2013-02-17 04:02:00,
2013-02-16 23:03:00,30.8,15.7,29.69,North,354,3.0,6.0,53,0.00,,OVC070,0.00,VWS V14.01,2013-02-17 04:03:00,
2013-02-16 23:04:00,30.8,15.3,29.69,NW,313,0.0,3.0,52,0.00,,OVC070,0.00,VWS V14.01,2013-02-17 04:04:00,
2013-02-16 23:05:00,31.7,19.8,29.74,North,4,3.0,6.0,61,0.00,,OVC200,0.00,VWS V14.01,2013-02-17 04:05:00,
2013-02-16 23:06:00,30.8,15.7,29.70,North,357,2.0,3.0,53,0.00,,OVC070,0.00,VWS V14.01,2013-02-17 04:06:00,
2013-02-16 23:07:00,30.7,15.2,29.70,NNE,30,3.0,4.0,52,0.00,,OVC070,0.00,VWS V14.01,2013-02-17 04:07:00,
2013-02-16 23:08:00,30.7,14.7,29.70,ENE,58,6.0,6.0,51,0.00,,OVC070,0.00,VWS V14.01,2013-02-17 04:08:00,
2013-02-16 23:09:00,30.7,14.7,29.70,NNE,25,3.0,7.0,51,0.00,,OVC070,0.00,VWS V14.01,2013-02-17 04:09:00,
2013-02-16 23:10:00,31.6,19.3,29.74,North,11,4.0,7.0,60,0.00,,OVC200,0.00,VWS V14.01,2013-02-17 04:10:00,
2013-02-16 23:11:00,30.7,15.2,29.70,NNW,344,0.0,1.0,52,0.00,,OVC070,0.00,VWS V14.01,2013-02-17 04:11:00,
2013-02-16 23:12:00,30.7,15.2,29.70,ENE,61,3.0,4.0,52,0.00,,OVC070,0.00,VWS V14.01,2013-02-17 04:12:00,
2013-02-16 23:13:00,30.6,15.1,29.70,NW,322,3.0,3.0,52,0.00,,OVC070,0.00,VWS V14.01,2013-02-17 04:13:00,
2013-02-16 23:14:00,30.6,15.1,29.70,NNE,33,3.0,4.0,52,0.00,,OVC070,0.00,VWS V14.01,2013-02-17 04:14:00,
2013-02-16 23:15:00,31.6,18.1,29.74,NE,41,7.0,15.0,57,0.00,,OVC200,0.00,VWS V14.01,2013-02-17 04:15:00,
2013-02-16 23:16:00,30.6,15.1,29.69,NE,41,3.0,4.0,52,0.00,,OVC070,0.00,VWS V14.01,2013-02-17 04:16:00,
2013-02-16 23:17:00,30.6,14.6,29.69,NNE,12,3.0,3.0,51,0.00,,OVC070,0.00,VWS V14.01,2013-02-17 04:17:00,
2013-02-16 23:20:00,31.5,17.6,29.74,NNE,23,5.0,7.0,56,0.00,,OVC200,0.00,VWS V14.01,2013-02-17 04:20:00,
2013-02-16 23:25:00,31.4,17.1,29.73,NE,34,4.0,7.0,55,0.00,,OVC200,0.00,VWS V14.01,2013-02-17 04:25:00,
2013-02-16 23:30:00,31.3,17.0,29.72,ESE,102,2.0,9.0,55,0.00,,OVC200,0.00,VWS V14.01,2013-02-17 04:30:00,
2013-02-16 23:35:00,31.2,17.3,29.71,NNE,20,4.0,7.0,56,0.00,,OVC200,0.00,VWS V14.01,2013-02-17 04:35:00,
2013-02-16 23:40:00,31.1,16.8,29.71,NE,44,5.0,10.0,55,0.00,,OVC070,0.00,VWS V14.01,2013-02-17 04:40:00,
2013-02-16 23:45:00,31.1,16.8,29.71,NNE,18,10.0,11.0,55,0.00,,OVC070,0.00,VWS V14.01,2013-02-17 04:45:00,
2013-02-16 23:50:00,31.0,16.7,29.70,NE,36,6.0,10.0,55,0.00,,OVC070,0.00,VWS V14.01,2013-02-17 04:50:00,
2013-02-16 23:55:00,30.9,15.8,29.69,NNE,22,6.0,8.0,53,0.00,,OVC070,0.00,VWS V14.01,2013-02-17 04:55:00,